Time;durP1;ratioP1;P1;durP2;ratioP2;P2;SDS_P1;SDS_P2;PMS_P1;PMS_P2;Temp;Humidity;BMP_temperature;BMP_pressure;BME280_temperature;BME280_humidity;BME280_pressure;Samples;Min_cycle;Max_cycle;Signal;HPM_P1;HPM_P2
2024/01/04 00:01:16;;;;;;;0.30;0.30;;;;;;;;;;5041233;28;20511;-70
2024/01/04 00:03:43;;;;;;;1.93;0.30;;;;;;;;;;5041059;28;20428;-71
2024/01/04 00:06:13;;;;;;;0.87;0.30;;;;;;;;;;5028522;28;20411;-70
2024/01/04 00:08:41;;;;;;;0.88;0.35;;;;;;;;;;5029760;28;20948;-70
2024/01/04 00:11:08;;;;;;;0.20;0.20;;;;;;;;;;5046610;28;20825;-70
2024/01/04 00:13:35;;;;;;;0.30;0.30;;;;;;;;;;5041061;28;20501;-70
2024/01/04 00:16:02;;;;;;;0.20;0.20;;;;;;;;;;5038793;28;20493;-70
2024/01/04 00:18:30;;;;;;;0.20;0.20;;;;;;;;;;5048048;28;20456;-70
2024/01/04 00:20:58;;;;;;;0.20;0.20;;;;;;;;;;5043250;28;20492;-70
2024/01/04 00:23:25;;;;;;;1.63;0.30;;;;;;;;;;5049801;28;20425;-70
2024/01/04 00:25:55;;;;;;;0.50;0.40;;;;;;;;;;5042926;28;20491;-70
2024/01/04 00:28:25;;;;;;;1.50;0.40;;;;;;;;;;5039162;28;20482;-70
2024/01/04 00:31:02;;;;;;;1.10;0.30;;;;;;;;;;5041234;28;20488;-70
2024/01/04 00:33:29;;;;;;;0.20;0.20;;;;;;;;;;5041055;28;20435;-70
2024/01/04 00:35:56;;;;;;;0.80;0.40;;;;;;;;;;5041090;28;20458;-70
2024/01/04 00:38:24;;;;;;;0.93;0.30;;;;;;;;;;5031708;28;20435;-69
2024/01/04 00:40:51;;;;;;;0.90;0.30;;;;;;;;;;5038371;28;20948;-69
2024/01/04 00:43:18;;;;;;;0.20;0.20;;;;;;;;;;5044019;28;20474;-71
2024/01/04 00:45:46;;;;;;;0.35;0.20;;;;;;;;;;5046364;28;20429;-70
2024/01/04 00:48:13;;;;;;;0.60;0.40;;;;;;;;;;5035811;28;21073;-69
2024/01/04 00:50:43;;;;;;;0.20;0.20;;;;;;;;;;5040682;28;20445;-69
2024/01/04 00:53:10;;;;;;;0.90;0.30;;;;;;;;;;5043327;28;20510;-70
2024/01/04 00:55:38;;;;;;;0.35;0.30;;;;;;;;;;5042451;28;20429;-70
2024/01/04 00:58:05;;;;;;;1.35;0.30;;;;;;;;;;5037312;28;20882;-70
2024/01/04 01:00:32;;;;;;;0.60;0.20;;;;;;;;;;5037286;28;21107;-69
2024/01/04 01:03:00;;;;;;;0.98;0.40;;;;;;;;;;5036095;28;20464;-70
2024/01/04 01:05:28;;;;;;;1.60;0.30;;;;;;;;;;5042049;28;20436;-69
2024/01/04 01:07:55;;;;;;;0.40;0.30;;;;;;;;;;5042669;28;20942;-69
2024/01/04 01:10:22;;;;;;;0.80;0.30;;;;;;;;;;5034506;28;20437;-70
2024/01/04 01:12:49;;;;;;;0.30;0.20;;;;;;;;;;5040814;28;20763;-69
2024/01/04 01:15:16;;;;;;;0.70;0.27;;;;;;;;;;5038204;28;20429;-69
2024/01/04 01:17:44;;;;;;;0.20;0.20;;;;;;;;;;5041452;28;20429;-69
2024/01/04 01:20:15;;;;;;;0.30;0.30;;;;;;;;;;5042436;28;20461;-69
2024/01/04 01:22:45;;;;;;;0.77;0.30;;;;;;;;;;5046625;28;20843;-69
2024/01/04 01:25:15;;;;;;;0.77;0.30;;;;;;;;;;5046286;28;20449;-69
2024/01/04 01:27:45;;;;;;;0.60;0.30;;;;;;;;;;5038394;28;20714;-69
2024/01/04 01:30:12;;;;;;;0.40;0.30;;;;;;;;;;5042320;28;20464;-69
2024/01/04 01:32:40;;;;;;;1.20;0.20;;;;;;;;;;5036762;28;20521;-69
2024/01/04 01:35:08;;;;;;;1.20;0.30;;;;;;;;;;5040363;28;20441;-68
2024/01/04 01:37:38;;;;;;;0.37;0.33;;;;;;;;;;5050102;28;20433;-69
2024/01/04 01:40:07;;;;;;;0.90;0.30;;;;;;;;;;5040401;28;20517;-69
2024/01/04 01:42:34;;;;;;;0.65;0.32;;;;;;;;;;5049022;28;20429;-69
2024/01/04 01:45:01;;;;;;;0.40;0.40;;;;;;;;;;5039222;28;20489;-69
2024/01/04 01:47:29;;;;;;;0.57;0.20;;;;;;;;;;5036215;28;20520;-69
2024/01/04 01:49:56;;;;;;;0.70;0.30;;;;;;;;;;5039551;28;21000;-69
2024/01/04 01:52:24;;;;;;;0.60;0.60;;;;;;;;;;5036719;28;20852;-70
2024/01/04 01:54:51;;;;;;;0.80;0.22;;;;;;;;;;5038043;28;20430;-69
2024/01/04 01:57:19;;;;;;;0.60;0.32;;;;;;;;;;5043358;28;20607;-69
2024/01/04 01:59:46;;;;;;;1.05;0.40;;;;;;;;;;5029649;28;20481;-69
2024/01/04 02:02:17;;;;;;;0.30;0.20;;;;;;;;;;5044954;28;20435;-69
2024/01/04 02:04:44;;;;;;;0.80;0.30;;;;;;;;;;5037756;28;20431;-69
2024/01/04 02:07:13;;;;;;;0.40;0.40;;;;;;;;;;5033051;28;20925;-69
2024/01/04 02:09:44;;;;;;;0.30;0.30;;;;;;;;;;5049654;28;20780;-70
2024/01/04 02:12:13;;;;;;;0.40;0.40;;;;;;;;;;5042081;28;20481;-69
2024/01/04 02:14:41;;;;;;;1.45;0.30;;;;;;;;;;5048071;28;20425;-69
2024/01/04 02:17:11;;;;;;;1.35;0.45;;;;;;;;;;5038159;28;20485;-69
2024/01/04 02:19:38;;;;;;;0.30;0.25;;;;;;;;;;5039781;28;20907;-69
2024/01/04 02:22:06;;;;;;;0.40;0.20;;;;;;;;;;5038379;28;20446;-69
2024/01/04 02:24:33;;;;;;;1.25;0.30;;;;;;;;;;5042793;28;21006;-69
2024/01/04 02:27:00;;;;;;;0.77;0.40;;;;;;;;;;5039261;28;20489;-69
2024/01/04 02:29:27;;;;;;;1.25;0.30;;;;;;;;;;5045260;28;20433;-69
2024/01/04 02:31:54;;;;;;;1.02;0.30;;;;;;;;;;5044488;28;20495;-69
2024/01/04 02:34:22;;;;;;;0.50;0.20;;;;;;;;;;5049301;28;21065;-69
2024/01/04 02:36:49;;;;;;;0.60;0.32;;;;;;;;;;5035066;28;20435;-69
2024/01/04 02:39:16;;;;;;;1.00;0.30;;;;;;;;;;5045304;28;20450;-69
2024/01/04 02:41:43;;;;;;;0.52;0.20;;;;;;;;;;5042982;28;20447;-69
2024/01/04 02:44:11;;;;;;;0.30;0.30;;;;;;;;;;5037667;28;20793;-69
2024/01/04 02:46:39;;;;;;;0.30;0.30;;;;;;;;;;5042208;28;20435;-69
2024/01/04 02:49:06;;;;;;;0.20;0.20;;;;;;;;;;5038871;28;20933;-68
2024/01/04 02:51:33;;;;;;;1.50;0.38;;;;;;;;;;5042166;28;20470;-68
2024/01/04 02:54:01;;;;;;;0.40;0.30;;;;;;;;;;5036786;28;20433;-68
2024/01/04 02:56:28;;;;;;;1.53;0.40;;;;;;;;;;5036206;28;20431;-69
2024/01/04 02:58:58;;;;;;;0.50;0.28;;;;;;;;;;5045456;28;20938;-69
2024/01/04 03:01:25;;;;;;;0.47;0.20;;;;;;;;;;5039126;28;20437;-69
2024/01/04 03:03:55;;;;;;;0.82;0.32;;;;;;;;;;5040297;28;20435;-68
2024/01/04 03:06:23;;;;;;;0.30;0.30;;;;;;;;;;5035125;28;20430;-69
2024/01/04 03:08:50;;;;;;;0.50;0.30;;;;;;;;;;5037123;28;20515;-68
2024/01/04 03:11:18;;;;;;;0.20;0.20;;;;;;;;;;5040974;28;20444;-68
2024/01/04 03:13:48;;;;;;;0.30;0.30;;;;;;;;;;5040540;28;20846;-69
2024/01/04 03:16:18;;;;;;;1.10;0.20;;;;;;;;;;5036618;28;20818;-68
2024/01/04 03:18:48;;;;;;;1.10;0.20;;;;;;;;;;5042255;28;20429;-68
2024/01/04 03:21:17;;;;;;;0.40;0.20;;;;;;;;;;5045821;28;20943;-68
2024/01/04 03:23:44;;;;;;;0.43;0.30;;;;;;;;;;5040515;28;20920;-69
2024/01/04 03:26:13;;;;;;;0.30;0.30;;;;;;;;;;5036330;28;20435;-69
2024/01/04 03:28:43;;;;;;;0.30;0.30;;;;;;;;;;5036988;28;20431;-68
2024/01/04 03:31:10;;;;;;;0.65;0.40;;;;;;;;;;5028934;28;20602;-68
2024/01/04 03:33:40;;;;;;;0.80;0.20;;;;;;;;;;5044774;28;20453;-68
2024/01/04 03:36:12;;;;;;;0.43;0.20;;;;;;;;;;5037203;28;20473;-68
2024/01/04 03:38:40;;;;;;;0.20;0.20;;;;;;;;;;5046648;28;20445;-68
2024/01/04 03:41:16;;;;;;;0.50;0.30;;;;;;;;;;5045049;28;20532;-68
2024/01/04 03:43:46;;;;;;;0.45;0.30;;;;;;;;;;5030601;28;21085;-68
2024/01/04 03:46:16;;;;;;;0.70;0.20;;;;;;;;;;5041226;28;21963;-68
2024/01/04 03:48:46;;;;;;;0.30;0.20;;;;;;;;;;5045209;28;20437;-68
2024/01/04 03:51:14;;;;;;;0.40;0.40;;;;;;;;;;5038477;28;20952;-68
2024/01/04 03:53:47;;;;;;;1.10;0.50;;;;;;;;;;5041754;28;20512;-68
2024/01/04 03:56:14;;;;;;;0.30;0.30;;;;;;;;;;5041593;28;20446;-68
2024/01/04 03:58:41;;;;;;;0.85;0.35;;;;;;;;;;5038753;28;20895;-68
2024/01/04 04:01:08;;;;;;;0.50;0.20;;;;;;;;;;5038365;28;20426;-68
2024/01/04 04:03:35;;;;;;;0.60;0.20;;;;;;;;;;5039397;28;20936;-68
2024/01/04 04:06:06;;;;;;;0.70;0.20;;;;;;;;;;5036668;28;20484;-68
2024/01/04 04:08:39;;;;;;;0.43;0.28;;;;;;;;;;5038300;28;20430;-68
2024/01/04 04:11:14;;;;;;;0.30;0.25;;;;;;;;;;5045954;28;20817;-68
2024/01/04 04:13:41;;;;;;;0.28;0.22;;;;;;;;;;5051977;28;20938;-68
2024/01/04 04:16:14;;;;;;;0.20;0.20;;;;;;;;;;5050653;28;20454;-70
2024/01/04 04:18:41;;;;;;;0.20;0.20;;;;;;;;;;5044437;28;21191;-69
2024/01/04 04:21:08;;;;;;;0.20;0.20;;;;;;;;;;5033682;28;21024;-68
2024/01/04 04:23:39;;;;;;;0.93;0.20;;;;;;;;;;5038408;28;20426;-68
2024/01/04 04:26:06;;;;;;;0.22;0.22;;;;;;;;;;5048550;28;20978;-68
2024/01/04 04:28:33;;;;;;;0.20;0.20;;;;;;;;;;5047491;28;20508;-68
2024/01/04 04:31:11;;;;;;;0.37;0.20;;;;;;;;;;5038039;28;20517;-69
2024/01/04 04:33:43;;;;;;;0.45;0.40;;;;;;;;;;5037790;28;20429;-68
2024/01/04 04:36:11;;;;;;;1.90;0.40;;;;;;;;;;5035958;28;20454;-69
2024/01/04 04:38:38;;;;;;;0.20;0.20;;;;;;;;;;5049137;28;20461;-68
2024/01/04 04:41:07;;;;;;;0.20;0.20;;;;;;;;;;5051438;28;20429;-69
2024/01/04 04:43:37;;;;;;;0.40;0.30;;;;;;;;;;5041645;28;20464;-68
2024/01/04 04:46:09;;;;;;;0.35;0.20;;;;;;;;;;5042941;28;20493;-68
2024/01/04 04:48:40;;;;;;;0.20;0.20;;;;;;;;;;5042526;28;20425;-68
2024/01/04 04:51:07;;;;;;;0.50;0.20;;;;;;;;;;5040952;28;20485;-69
2024/01/04 04:53:37;;;;;;;0.88;0.25;;;;;;;;;;5031385;28;20852;-68
2024/01/04 04:56:04;;;;;;;0.88;0.40;;;;;;;;;;5038820;28;20436;-68
2024/01/04 04:58:34;;;;;;;0.73;0.40;;;;;;;;;;5043097;28;20457;-69
2024/01/04 05:01:02;;;;;;;0.35;0.25;;;;;;;;;;5038913;28;20559;-68
2024/01/04 05:03:32;;;;;;;0.28;0.28;;;;;;;;;;5036889;28;21022;-68
2024/01/04 05:06:00;;;;;;;0.20;0.20;;;;;;;;;;5042125;28;21243;-68
2024/01/04 05:08:29;;;;;;;0.30;0.30;;;;;;;;;;5050490;28;20429;-68
2024/01/04 05:10:56;;;;;;;0.65;0.20;;;;;;;;;;5042462;28;20914;-68
2024/01/04 05:13:23;;;;;;;0.55;0.40;;;;;;;;;;5034421;28;20465;-68
2024/01/04 05:15:56;;;;;;;1.08;0.50;;;;;;;;;;5035242;28;20433;-68
2024/01/04 05:18:24;;;;;;;0.50;0.22;;;;;;;;;;5044118;28;20804;-68
2024/01/04 05:20:51;;;;;;;0.30;0.30;;;;;;;;;;5041738;28;20429;-68
2024/01/04 05:23:18;;;;;;;0.30;0.30;;;;;;;;;;5031427;28;20552;-68
2024/01/04 05:25:48;;;;;;;0.28;0.28;;;;;;;;;;5036007;28;20421;-68
2024/01/04 05:28:16;;;;;;;0.85;0.40;;;;;;;;;;5042734;28;20429;-68
2024/01/04 05:30:46;;;;;;;0.80;0.30;;;;;;;;;;5039203;28;20431;-69
2024/01/04 05:33:13;;;;;;;1.07;0.40;;;;;;;;;;5038880;28;20946;-68
2024/01/04 05:35:41;;;;;;;0.30;0.30;;;;;;;;;;5037086;28;20438;-68
2024/01/04 05:38:08;;;;;;;0.40;0.38;;;;;;;;;;5045531;28;20421;-68
2024/01/04 05:40:35;;;;;;;0.50;0.40;;;;;;;;;;5040415;28;20437;-67
2024/01/04 05:43:02;;;;;;;0.80;0.60;;;;;;;;;;5049876;28;20434;-67
2024/01/04 05:45:29;;;;;;;0.73;0.30;;;;;;;;;;5049845;28;20890;-68
2024/01/04 05:47:56;;;;;;;0.50;0.30;;;;;;;;;;5034284;28;20430;-69
2024/01/04 05:50:24;;;;;;;0.80;0.40;;;;;;;;;;5031924;28;20496;-68
2024/01/04 05:52:51;;;;;;;2.30;0.60;;;;;;;;;;5045210;28;20440;-69
2024/01/04 05:55:18;;;;;;;1.70;0.50;;;;;;;;;;5038384;28;20500;-69
2024/01/04 05:57:47;;;;;;;1.33;0.40;;;;;;;;;;5037979;28;20431;-69
2024/01/04 06:00:15;;;;;;;1.43;0.40;;;;;;;;;;5038222;28;20505;-69
2024/01/04 06:02:45;;;;;;;1.25;0.40;;;;;;;;;;5040060;28;20439;-69
2024/01/04 06:05:15;;;;;;;0.90;0.30;;;;;;;;;;5036352;28;20430;-69
2024/01/04 06:07:42;;;;;;;0.45;0.38;;;;;;;;;;5035769;28;20437;-69
2024/01/04 06:10:09;;;;;;;0.70;0.40;;;;;;;;;;5043236;28;20488;-69
2024/01/04 06:12:37;;;;;;;1.00;0.40;;;;;;;;;;5043650;28;20850;-69
2024/01/04 06:15:04;;;;;;;0.40;0.40;;;;;;;;;;5037161;28;20508;-69
2024/01/04 06:17:31;;;;;;;0.50;0.40;;;;;;;;;;5033586;28;20445;-68
2024/01/04 06:19:58;;;;;;;1.00;0.40;;;;;;;;;;5033893;28;20448;-68
2024/01/04 06:22:25;;;;;;;0.80;0.30;;;;;;;;;;5045705;28;20487;-68
2024/01/04 06:24:52;;;;;;;0.60;0.20;;;;;;;;;;5047045;28;20436;-68
2024/01/04 06:27:20;;;;;;;0.30;0.30;;;;;;;;;;5047602;28;20500;-67
2024/01/04 06:29:47;;;;;;;0.60;0.37;;;;;;;;;;5047615;28;20959;-67
2024/01/04 06:32:14;;;;;;;0.60;0.30;;;;;;;;;;5030943;28;20442;-67
2024/01/04 06:34:41;;;;;;;0.90;0.30;;;;;;;;;;5040261;28;20487;-68
2024/01/04 06:37:09;;;;;;;0.30;0.30;;;;;;;;;;5031736;28;20435;-67
2024/01/04 06:39:37;;;;;;;0.52;0.30;;;;;;;;;;5036611;28;20550;-67
2024/01/04 06:42:04;;;;;;;1.00;0.30;;;;;;;;;;5036706;28;20524;-67
2024/01/04 06:44:33;;;;;;;0.80;0.40;;;;;;;;;;5046993;28;20425;-68
2024/01/04 06:47:10;;;;;;;0.63;0.40;;;;;;;;;;5039833;28;20462;-68
2024/01/04 06:49:41;;;;;;;0.50;0.40;;;;;;;;;;5036640;28;20434;-68
2024/01/04 06:52:09;;;;;;;0.60;0.50;;;;;;;;;;5037078;28;20431;-68
2024/01/04 06:54:36;;;;;;;0.40;0.30;;;;;;;;;;5043977;28;20490;-68
2024/01/04 06:57:06;;;;;;;0.40;0.40;;;;;;;;;;5032508;28;20446;-68
2024/01/04 06:59:34;;;;;;;1.08;0.60;;;;;;;;;;5031805;28;20434;-68
2024/01/04 07:02:05;;;;;;;0.60;0.50;;;;;;;;;;5040603;28;20438;-68
2024/01/04 07:04:35;;;;;;;1.75;0.40;;;;;;;;;;5035213;28;20449;-68
2024/01/04 07:07:02;;;;;;;0.80;0.30;;;;;;;;;;5030836;28;20435;-68
2024/01/04 07:09:29;;;;;;;0.43;0.30;;;;;;;;;;5044683;28;20421;-68
2024/01/04 07:12:00;;;;;;;0.43;0.43;;;;;;;;;;5044355;28;20930;-68
2024/01/04 07:14:27;;;;;;;0.40;0.40;;;;;;;;;;5031410;28;20437;-68
2024/01/04 07:16:54;;;;;;;0.30;0.30;;;;;;;;;;5038463;28;20508;-68
2024/01/04 07:19:22;;;;;;;0.30;0.30;;;;;;;;;;5037909;28;20426;-68
2024/01/04 07:21:50;;;;;;;0.73;0.33;;;;;;;;;;5033955;28;20457;-68
2024/01/04 07:24:17;;;;;;;0.20;0.20;;;;;;;;;;5030806;28;20425;-68
2024/01/04 07:26:44;;;;;;;0.50;0.30;;;;;;;;;;5037160;28;20441;-67
2024/01/04 07:29:11;;;;;;;1.02;0.30;;;;;;;;;;5042614;28;20826;-68
2024/01/04 07:31:38;;;;;;;0.30;0.28;;;;;;;;;;5043702;28;20520;-68
2024/01/04 07:34:08;;;;;;;0.28;0.20;;;;;;;;;;5037058;28;20452;-68
2024/01/04 07:36:36;;;;;;;0.20;0.20;;;;;;;;;;5038739;28;20524;-68
2024/01/04 07:39:03;;;;;;;0.20;0.10;;;;;;;;;;5046784;28;20912;-68
2024/01/04 07:41:30;;;;;;;0.70;0.20;;;;;;;;;;5028295;28;20438;-68
2024/01/04 07:44:00;;;;;;;0.30;0.30;;;;;;;;;;5044514;28;20429;-68
2024/01/04 07:46:27;;;;;;;0.88;0.20;;;;;;;;;;5038688;28;20507;-67
2024/01/04 07:48:55;;;;;;;1.05;0.20;;;;;;;;;;5033167;28;20767;-67
2024/01/04 07:51:26;;;;;;;0.20;0.20;;;;;;;;;;5042908;28;20427;-68
2024/01/04 07:53:55;;;;;;;0.60;0.30;;;;;;;;;;5042713;28;20461;-68
2024/01/04 07:56:22;;;;;;;1.00;0.20;;;;;;;;;;5042114;28;20439;-67
2024/01/04 07:58:50;;;;;;;0.45;0.30;;;;;;;;;;5039252;28;20582;-67
2024/01/04 08:01:17;;;;;;;0.50;0.47;;;;;;;;;;5041750;28;21000;-68
2024/01/04 08:03:44;;;;;;;0.35;0.20;;;;;;;;;;5042170;28;20425;-68
2024/01/04 08:06:12;;;;;;;0.30;0.30;;;;;;;;;;5030395;28;20439;-68
2024/01/04 08:08:40;;;;;;;0.40;0.40;;;;;;;;;;5039992;28;20440;-68
2024/01/04 08:11:10;;;;;;;0.27;0.27;;;;;;;;;;5036030;28;20429;-67
2024/01/04 08:13:37;;;;;;;0.30;0.23;;;;;;;;;;5038449;28;20464;-67
2024/01/04 08:16:07;;;;;;;0.60;0.30;;;;;;;;;;5035158;28;20585;-67
2024/01/04 08:18:37;;;;;;;0.20;0.20;;;;;;;;;;5039172;28;21203;-67
2024/01/04 08:21:05;;;;;;;0.57;0.40;;;;;;;;;;5033788;28;20423;-67
2024/01/04 08:23:32;;;;;;;0.38;0.38;;;;;;;;;;5031208;28;20518;-68
2024/01/04 08:26:03;;;;;;;0.30;0.22;;;;;;;;;;5039042;28;20878;-67
2024/01/04 08:28:30;;;;;;;0.68;0.30;;;;;;;;;;5035840;28;20524;-66
2024/01/04 08:30:58;;;;;;;0.52;0.20;;;;;;;;;;5039703;28;20761;-66
2024/01/04 08:33:27;;;;;;;0.20;0.20;;;;;;;;;;5039004;28;20927;-66
2024/01/04 08:35:54;;;;;;;0.30;0.30;;;;;;;;;;5033152;28;20435;-65
2024/01/04 08:38:21;;;;;;;0.35;0.30;;;;;;;;;;5038756;28;20442;-66
2024/01/04 08:40:49;;;;;;;0.40;0.30;;;;;;;;;;5047651;28;20429;-66
2024/01/04 08:43:19;;;;;;;0.93;0.30;;;;;;;;;;5039041;28;20508;-66
2024/01/04 08:45:47;;;;;;;0.30;0.30;;;;;;;;;;5043747;28;20443;-66
2024/01/04 08:48:18;;;;;;;0.40;0.20;;;;;;;;;;5048185;28;20487;-66
2024/01/04 08:50:46;;;;;;;0.20;0.20;;;;;;;;;;5041415;28;20429;-66
2024/01/04 08:53:13;;;;;;;1.00;0.30;;;;;;;;;;5037314;28;20433;-66
2024/01/04 08:55:41;;;;;;;0.30;0.30;;;;;;;;;;5039283;28;20450;-66
2024/01/04 08:58:08;;;;;;;0.30;0.30;;;;;;;;;;5039638;28;20433;-66
2024/01/04 09:00:36;;;;;;;0.20;0.20;;;;;;;;;;5045818;28;20504;-66
2024/01/04 09:03:03;;;;;;;0.90;0.40;;;;;;;;;;5041031;28;20464;-66
2024/01/04 09:05:31;;;;;;;0.20;0.20;;;;;;;;;;5036857;28;20438;-66
2024/01/04 09:07:58;;;;;;;0.47;0.30;;;;;;;;;;5037470;28;20498;-66
2024/01/04 09:10:31;;;;;;;0.30;0.30;;;;;;;;;;5040606;28;20433;-66
2024/01/04 09:12:58;;;;;;;0.30;0.30;;;;;;;;;;5046033;28;20468;-66
2024/01/04 09:15:25;;;;;;;0.50;0.30;;;;;;;;;;5041633;28;20523;-67
2024/01/04 09:17:55;;;;;;;0.40;0.40;;;;;;;;;;5045272;28;20440;-67
2024/01/04 09:20:24;;;;;;;0.70;0.30;;;;;;;;;;5040283;28;20429;-67
2024/01/04 09:22:52;;;;;;;0.20;0.20;;;;;;;;;;5045976;28;20499;-66
2024/01/04 09:25:20;;;;;;;0.40;0.30;;;;;;;;;;5043646;28;20457;-67
2024/01/04 09:27:47;;;;;;;0.30;0.30;;;;;;;;;;5036591;28;20435;-67
2024/01/04 09:30:14;;;;;;;0.40;0.20;;;;;;;;;;5044762;28;20437;-67
2024/01/04 09:32:43;;;;;;;0.30;0.30;;;;;;;;;;5031607;28;20435;-66
2024/01/04 09:35:10;;;;;;;0.28;0.28;;;;;;;;;;5049333;28;20429;-66
2024/01/04 09:37:37;;;;;;;0.30;0.20;;;;;;;;;;5036910;28;20517;-66
2024/01/04 09:40:04;;;;;;;0.40;0.20;;;;;;;;;;5042806;28;20521;-67
2024/01/04 09:42:38;;;;;;;0.70;0.30;;;;;;;;;;5034250;28;20514;-67
2024/01/04 09:45:07;;;;;;;0.55;0.30;;;;;;;;;;5037123;28;20584;-66
2024/01/04 09:47:44;;;;;;;0.50;0.40;;;;;;;;;;5045845;28;20970;-66
2024/01/04 09:50:12;;;;;;;2.40;0.70;;;;;;;;;;5037250;28;20496;-66
2024/01/04 09:52:41;;;;;;;1.90;0.57;;;;;;;;;;5039995;28;20521;-66
2024/01/04 09:55:12;;;;;;;1.97;0.50;;;;;;;;;;5035902;28;20435;-67
2024/01/04 09:57:39;;;;;;;1.63;0.50;;;;;;;;;;5036986;28;20925;-66
2024/01/04 10:00:08;;;;;;;1.05;0.47;;;;;;;;;;5038698;28;20431;-66
2024/01/04 10:02:39;;;;;;;1.00;0.40;;;;;;;;;;5032358;28;20429;-66
2024/01/04 10:05:07;;;;;;;2.43;0.50;;;;;;;;;;5045897;28;20433;-65
2024/01/04 10:07:39;;;;;;;2.38;0.40;;;;;;;;;;5036002;28;20920;-66
2024/01/04 10:10:09;;;;;;;0.50;0.50;;;;;;;;;;5047478;28;20459;-66
2024/01/04 10:12:42;;;;;;;1.35;0.50;;;;;;;;;;5048499;28;20429;-66
2024/01/04 10:15:11;;;;;;;10.25;3.22;;;;;;;;;;5039645;28;20442;-66
2024/01/04 10:17:39;;;;;;;1.52;0.70;;;;;;;;;;5042677;28;20431;-66
2024/01/04 10:20:08;;;;;;;2.43;0.70;;;;;;;;;;5038963;28;20570;-66
2024/01/04 10:22:35;;;;;;;1.02;0.60;;;;;;;;;;5031256;28;20460;-67
2024/01/04 10:25:18;;;;;;;2.13;0.70;;;;;;;;;;5034905;28;20524;-67
2024/01/04 10:27:56;;;;;;;2.00;0.60;;;;;;;;;;5044018;28;20486;-66
2024/01/04 10:30:23;;;;;;;1.52;0.50;;;;;;;;;;5033109;28;20899;-66
2024/01/04 10:32:54;;;;;;;1.95;0.68;;;;;;;;;;5036361;28;20426;-67
2024/01/04 10:35:29;;;;;;;1.98;0.80;;;;;;;;;;5034639;28;20512;-67
2024/01/04 10:38:00;;;;;;;2.03;0.70;;;;;;;;;;5034891;28;20823;-66
2024/01/04 10:40:28;;;;;;;3.00;0.75;;;;;;;;;;5034275;28;20431;-66
2024/01/04 10:43:01;;;;;;;1.63;0.75;;;;;;;;;;5034945;28;20453;-67
2024/01/04 10:45:29;;;;;;;0.80;0.50;;;;;;;;;;5042884;28;20922;-67
2024/01/04 10:47:57;;;;;;;1.20;0.50;;;;;;;;;;5038752;28;20527;-66
2024/01/04 10:50:24;;;;;;;1.45;0.60;;;;;;;;;;5046489;28;20429;-66
2024/01/04 10:52:54;;;;;;;0.40;0.40;;;;;;;;;;5035388;28;20435;-66
2024/01/04 10:55:22;;;;;;;0.60;0.40;;;;;;;;;;5030439;28;20488;-67
2024/01/04 10:57:50;;;;;;;1.27;0.50;;;;;;;;;;5041805;28;20433;-67
2024/01/04 11:00:18;;;;;;;2.10;0.57;;;;;;;;;;5034550;28;20867;-66
2024/01/04 11:02:47;;;;;;;2.10;0.55;;;;;;;;;;5043848;28;20428;-66
2024/01/04 11:05:15;;;;;;;2.22;0.60;;;;;;;;;;5045468;28;21123;-66
2024/01/04 11:07:43;;;;;;;1.40;0.70;;;;;;;;;;5036483;28;20444;-67
2024/01/04 11:10:12;;;;;;;1.13;0.55;;;;;;;;;;5035861;28;20443;-67
2024/01/04 11:12:41;;;;;;;1.80;0.70;;;;;;;;;;5039482;28;20945;-67
2024/01/04 11:15:12;;;;;;;4.20;0.80;;;;;;;;;;5038389;28;20435;-67
2024/01/04 11:17:46;;;;;;;1.80;0.80;;;;;;;;;;5043853;28;21763;-66
2024/01/04 11:20:40;;;;;;;2.67;0.80;;;;;;;;;;5047737;28;20429;-67
2024/01/04 11:23:10;;;;;;;2.83;0.90;;;;;;;;;;5039470;28;20911;-66
2024/01/04 11:25:37;;;;;;;3.97;0.90;;;;;;;;;;5040031;28;20421;-66
2024/01/04 11:28:12;;;;;;;2.35;0.80;;;;;;;;;;5030946;28;20439;-67
2024/01/04 11:30:59;;;;;;;2.45;0.70;;;;;;;;;;5031851;28;20438;-67
2024/01/04 11:33:27;;;;;;;3.47;1.17;;;;;;;;;;5038521;28;20507;-66
2024/01/04 11:35:55;;;;;;;3.97;1.00;;;;;;;;;;5036099;28;20896;-67
2024/01/04 11:38:26;;;;;;;7.40;1.55;;;;;;;;;;5039751;28;20483;-66
2024/01/04 11:40:53;;;;;;;2.23;1.10;;;;;;;;;;5043755;28;20437;-66
2024/01/04 11:43:20;;;;;;;2.77;0.87;;;;;;;;;;5044559;28;20570;-66
2024/01/04 11:45:48;;;;;;;6.77;1.20;;;;;;;;;;5026845;28;20438;-63
2024/01/04 11:48:20;;;;;;;3.70;0.90;;;;;;;;;;5038685;28;20429;-65
2024/01/04 11:50:49;;;;;;;2.42;1.00;;;;;;;;;;5035113;28;20437;-67
2024/01/04 11:53:17;;;;;;;5.43;1.25;;;;;;;;;;5034846;28;20542;-66
2024/01/04 11:55:45;;;;;;;4.10;1.00;;;;;;;;;;5037427;28;20477;-66
2024/01/04 11:58:16;;;;;;;2.50;1.00;;;;;;;;;;5037707;28;20429;-66
2024/01/04 12:00:51;;;;;;;2.38;0.98;;;;;;;;;;5036951;28;21106;-66
2024/01/04 12:03:22;;;;;;;2.95;0.93;;;;;;;;;;5046737;28;20425;-66
2024/01/04 12:05:53;;;;;;;4.40;1.17;;;;;;;;;;5034368;28;20485;-66
2024/01/04 12:08:24;;;;;;;2.55;1.00;;;;;;;;;;5041762;28;20484;-66
2024/01/04 12:10:53;;;;;;;6.03;1.08;;;;;;;;;;5033798;28;20447;-66
2024/01/04 12:13:21;;;;;;;5.38;0.80;;;;;;;;;;5032179;28;20431;-66
2024/01/04 12:15:49;;;;;;;4.88;1.10;;;;;;;;;;5035279;28;20430;-65
2024/01/04 12:18:17;;;;;;;4.43;0.90;;;;;;;;;;5034019;28;20523;-65
2024/01/04 12:20:48;;;;;;;4.05;1.52;;;;;;;;;;5031647;28;20547;-66
2024/01/04 12:23:15;;;;;;;3.78;0.90;;;;;;;;;;5040187;28;20432;-66
2024/01/04 12:25:44;;;;;;;4.20;1.00;;;;;;;;;;5042212;28;20506;-66
2024/01/04 12:28:13;;;;;;;2.90;0.82;;;;;;;;;;5043061;28;20826;-65
2024/01/04 12:30:41;;;;;;;2.67;0.90;;;;;;;;;;5045807;28;20503;-65
2024/01/04 12:33:11;;;;;;;3.92;0.90;;;;;;;;;;5036931;28;20461;-66
2024/01/04 12:35:38;;;;;;;1.13;0.63;;;;;;;;;;5038961;28;20433;-65
2024/01/04 12:38:08;;;;;;;2.25;0.60;;;;;;;;;;5038215;28;20429;-66
2024/01/04 12:40:41;;;;;;;2.10;0.70;;;;;;;;;;5037517;28;20819;-66
2024/01/04 12:43:10;;;;;;;2.73;1.00;;;;;;;;;;5049936;28;20496;-65
2024/01/04 12:45:40;;;;;;;2.05;0.60;;;;;;;;;;5040129;28;20492;-66
2024/01/04 12:48:07;;;;;;;1.40;0.60;;;;;;;;;;5044057;28;20466;-66
2024/01/04 12:50:37;;;;;;;1.95;0.70;;;;;;;;;;5045175;28;20824;-65
2024/01/04 12:53:08;;;;;;;0.60;0.50;;;;;;;;;;5058124;28;20425;-66
2024/01/04 12:55:35;;;;;;;2.95;0.70;;;;;;;;;;5046181;28;20447;-66
2024/01/04 12:58:05;;;;;;;4.15;1.13;;;;;;;;;;5043162;28;20433;-65
2024/01/04 13:00:35;;;;;;;2.40;0.73;;;;;;;;;;5041895;28;20451;-66
2024/01/04 13:03:02;;;;;;;5.10;1.02;;;;;;;;;;5044269;28;20491;-66
2024/01/04 13:05:29;;;;;;;2.08;0.82;;;;;;;;;;5043295;28;20425;-66
2024/01/04 13:07:57;;;;;;;3.03;0.95;;;;;;;;;;5040126;28;20496;-66
2024/01/04 13:10:24;;;;;;;4.38;0.90;;;;;;;;;;5034898;28;20444;-66
2024/01/04 13:12:52;;;;;;;5.88;1.10;;;;;;;;;;5040309;28;20505;-66
2024/01/04 13:15:19;;;;;;;4.65;1.10;;;;;;;;;;5037396;28;20467;-66
2024/01/04 13:17:46;;;;;;;3.13;0.90;;;;;;;;;;5043770;28;20456;-66
2024/01/04 13:20:14;;;;;;;3.33;0.95;;;;;;;;;;5036402;28;20784;-66
2024/01/04 13:22:44;;;;;;;4.30;0.70;;;;;;;;;;5035731;28;20426;-66
2024/01/04 13:25:11;;;;;;;5.22;1.40;;;;;;;;;;5032793;28;20462;-66
2024/01/04 13:27:39;;;;;;;1.92;0.90;;;;;;;;;;5030552;28;20433;-66
2024/01/04 13:30:06;;;;;;;4.47;0.85;;;;;;;;;;5041037;28;20784;-66
2024/01/04 13:32:34;;;;;;;4.43;1.02;;;;;;;;;;5040385;28;20458;-66
2024/01/04 13:35:05;;;;;;;3.07;0.90;;;;;;;;;;5036514;28;20449;-66
2024/01/04 13:37:35;;;;;;;2.67;1.10;;;;;;;;;;5037895;28;20444;-66
2024/01/04 13:40:02;;;;;;;5.70;1.02;;;;;;;;;;5035399;28;20842;-66
2024/01/04 13:42:29;;;;;;;5.53;1.00;;;;;;;;;;5039788;28;20542;-68
2024/01/04 13:44:57;;;;;;;3.83;1.00;;;;;;;;;;5040556;28;20917;-68
2024/01/04 13:47:27;;;;;;;6.75;1.10;;;;;;;;;;5033576;28;20436;-67
2024/01/04 13:49:54;;;;;;;3.90;0.90;;;;;;;;;;5045165;28;20445;-67
2024/01/04 13:52:22;;;;;;;4.45;0.82;;;;;;;;;;5039426;28;21153;-68
2024/01/04 13:54:52;;;;;;;2.65;1.08;;;;;;;;;;5031098;28;20523;-68
2024/01/04 13:57:19;;;;;;;2.93;0.90;;;;;;;;;;5039640;28;20457;-68
2024/01/04 13:59:47;;;;;;;4.20;0.95;;;;;;;;;;5038152;28;20429;-68
2024/01/04 14:02:15;;;;;;;2.45;0.90;;;;;;;;;;5040953;28;20506;-68
2024/01/04 14:04:42;;;;;;;3.90;1.10;;;;;;;;;;5039314;28;20454;-68
2024/01/04 14:07:10;;;;;;;5.53;1.10;;;;;;;;;;5045095;28;20502;-69
2024/01/04 14:09:37;;;;;;;4.45;0.70;;;;;;;;;;5037731;28;20468;-67
2024/01/04 14:12:05;;;;;;;4.00;0.73;;;;;;;;;;5033421;28;20460;-67
2024/01/04 14:14:32;;;;;;;3.60;0.90;;;;;;;;;;5035239;28;20438;-67
2024/01/04 14:17:00;;;;;;;3.72;1.00;;;;;;;;;;5042033;28;20510;-67
2024/01/04 14:19:27;;;;;;;3.90;0.80;;;;;;;;;;5041797;28;20512;-67
2024/01/04 14:21:54;;;;;;;6.47;1.10;;;;;;;;;;5046927;28;20425;-67
2024/01/04 14:24:22;;;;;;;3.75;0.75;;;;;;;;;;5042493;28;20859;-67
2024/01/04 14:26:50;;;;;;;3.70;0.90;;;;;;;;;;5042167;28;20565;-67
2024/01/04 14:29:20;;;;;;;3.33;1.10;;;;;;;;;;5034798;28;20958;-68
2024/01/04 14:31:47;;;;;;;4.43;1.00;;;;;;;;;;5037558;28;20521;-69
2024/01/04 14:34:15;;;;;;;2.72;0.70;;;;;;;;;;5034868;28;20443;-70
2024/01/04 14:36:43;;;;;;;3.42;1.08;;;;;;;;;;5032539;28;20437;-70
2024/01/04 14:39:11;;;;;;;5.28;0.80;;;;;;;;;;5039399;28;20462;-70
2024/01/04 14:41:45;;;;;;;3.83;0.93;;;;;;;;;;5043309;28;20915;-70
2024/01/04 14:44:12;;;;;;;2.72;0.90;;;;;;;;;;5034262;28;20512;-70
2024/01/04 14:46:39;;;;;;;2.30;1.02;;;;;;;;;;5037067;28;20479;-70
2024/01/04 14:49:08;;;;;;;3.60;1.00;;;;;;;;;;5043493;28;20437;-70
2024/01/04 14:51:36;;;;;;;4.25;1.35;;;;;;;;;;5037631;28;20940;-70